createdAt,value
2019-03-19T00:00:59.469Z,4.90
2019-03-19T00:01:59.456Z,5.10
2019-03-19T00:02:59.443Z,5.40
2019-03-19T00:03:59.460Z,5.50
2019-03-19T00:04:59.426Z,4.50
2019-03-19T00:06:01.205Z,4.70
2019-03-19T00:06:59.404Z,4.80
2019-03-19T00:07:59.396Z,5.10
2019-03-19T00:08:59.411Z,5.00
2019-03-19T00:09:59.372Z,4.70
2019-03-19T00:10:59.364Z,5.20
2019-03-19T00:11:59.356Z,4.40
2019-03-19T00:12:59.347Z,5.50
2019-03-19T00:13:59.371Z,4.50
2019-03-19T00:14:59.318Z,4.40
2019-03-19T00:15:59.314Z,5.20
2019-03-19T00:16:59.321Z,4.90
2019-03-19T00:17:59.292Z,5.10
2019-03-19T00:18:59.308Z,5.10
2019-03-19T00:19:59.269Z,4.90
2019-03-19T00:20:59.256Z,5.10
2019-03-19T00:21:59.247Z,5.50
2019-03-19T00:22:59.242Z,5.30
2019-03-19T00:23:59.252Z,5.40
2019-03-19T00:24:59.215Z,5.50
2019-03-19T00:25:59.204Z,4.40
2019-03-19T00:26:59.197Z,4.80
2019-03-19T00:27:59.186Z,5.10
2019-03-19T00:28:59.202Z,5.20
2019-03-19T00:29:59.176Z,4.60
2019-03-19T00:30:59.151Z,5.00
2019-03-19T00:31:59.144Z,4.80
2019-03-19T00:32:59.135Z,5.00
2019-03-19T00:33:59.166Z,4.90
2019-03-19T00:34:59.113Z,4.80
2019-03-19T00:35:59.100Z,4.40
2019-03-19T00:36:59.087Z,4.90
2019-03-19T00:37:59.081Z,4.70
2019-03-19T00:38:59.069Z,4.90
2019-03-19T00:39:59.088Z,5.30
2019-03-19T00:40:59.052Z,5.50
2019-03-19T00:41:59.035Z,4.70
2019-03-19T00:42:59.033Z,5.30
2019-03-19T00:43:59.016Z,5.70
2019-03-19T00:44:59.037Z,5.50
2019-03-19T00:45:59.007Z,5.30
2019-03-19T00:46:58.985Z,5.10
2019-03-19T00:47:58.978Z,5.50
2019-03-19T00:48:58.964Z,5.40
2019-03-19T00:49:58.982Z,5.30
2019-03-19T00:50:58.959Z,5.10
2019-03-19T00:51:58.930Z,6.00
2019-03-19T00:52:58.924Z,5.50
2019-03-19T00:53:58.917Z,5.40
2019-03-19T00:54:58.931Z,5.60
2019-03-19T00:55:58.896Z,5.50
2019-03-19T00:56:58.881Z,5.10
2019-03-19T00:57:58.872Z,5.50
2019-03-19T00:58:58.856Z,5.30
2019-03-19T00:59:58.925Z,4.80
2019-03-19T01:00:58.840Z,4.90
2019-03-19T01:01:58.827Z,5.50
2019-03-19T01:02:58.826Z,5.70
2019-03-19T01:03:58.817Z,5.40
2019-03-19T01:04:58.830Z,5.50
2019-03-19T01:05:58.788Z,5.20
2019-03-19T01:06:58.776Z,5.80
2019-03-19T01:07:58.820Z,5.80
2019-03-19T01:08:58.821Z,5.20
2019-03-19T01:09:58.770Z,6.30
2019-03-19T01:10:58.731Z,5.40
2019-03-19T01:11:58.723Z,5.80
2019-03-19T01:12:58.712Z,5.80
2019-03-19T01:13:58.707Z,5.70
2019-03-19T01:14:58.726Z,5.40
2019-03-19T01:15:58.688Z,5.30
2019-03-19T01:16:58.672Z,5.20
2019-03-19T01:17:58.663Z,4.90
2019-03-19T01:18:58.648Z,5.30
2019-03-19T01:19:58.678Z,5.40
2019-03-19T01:20:58.628Z,5.40
2019-03-19T01:21:58.621Z,5.40
2019-03-19T01:22:58.612Z,5.70
2019-03-19T01:23:58.596Z,5.80
2019-03-19T01:24:58.617Z,5.90
2019-03-19T01:25:58.580Z,6.30
2019-03-19T01:26:58.569Z,6.00
2019-03-19T01:27:58.564Z,5.90
2019-03-19T01:28:58.545Z,5.70
2019-03-19T01:29:58.561Z,6.00
2019-03-19T01:30:58.523Z,6.80
2019-03-19T01:31:58.517Z,6.40
2019-03-19T01:32:58.518Z,6.70
2019-03-19T01:33:58.530Z,6.40
2019-03-19T01:34:58.508Z,6.10
2019-03-19T01:35:58.473Z,7.10
2019-03-19T01:36:58.468Z,6.70
2019-03-19T01:37:58.456Z,7.20
2019-03-19T01:38:58.439Z,6.90
2019-03-19T01:39:58.459Z,6.90
2019-03-19T01:40:58.425Z,6.30
2019-03-19T01:41:58.418Z,6.30
2019-03-19T01:42:58.399Z,6.70
2019-03-19T01:43:58.387Z,6.90
2019-03-19T01:44:58.414Z,7.90
2019-03-19T01:45:58.368Z,7.50
2019-03-19T01:46:58.360Z,7.60
2019-03-19T01:47:58.343Z,7.70
2019-03-19T01:48:58.335Z,6.90
2019-03-19T01:49:58.354Z,6.70
2019-03-19T01:50:58.315Z,6.60
2019-03-19T01:51:58.306Z,6.50
2019-03-19T01:52:58.294Z,6.20
2019-03-19T01:53:58.282Z,6.40
2019-03-19T01:54:58.299Z,6.20
2019-03-19T01:56:05.178Z,6.40
2019-03-19T01:56:59.260Z,7.10
2019-03-19T01:57:58.257Z,6.50
2019-03-19T01:58:58.230Z,6.70
2019-03-19T01:59:58.254Z,6.80
2019-03-19T02:00:58.212Z,7.20
2019-03-19T02:01:58.205Z,6.80
2019-03-19T02:02:58.191Z,6.70
2019-03-19T02:03:58.179Z,6.90
2019-03-19T02:04:58.211Z,6.40
2019-03-19T02:05:58.159Z,6.10
2019-03-19T02:06:58.160Z,7.30
2019-03-19T02:07:58.138Z,7.00
2019-03-19T02:08:58.132Z,7.10
2019-03-19T02:09:58.146Z,7.00
2019-03-19T02:10:58.106Z,6.30
2019-03-19T02:11:58.095Z,6.30
2019-03-19T02:12:58.082Z,7.00
2019-03-19T02:13:58.076Z,6.30
2019-03-19T02:14:58.093Z,6.80
2019-03-19T02:15:58.058Z,7.50
2019-03-19T02:16:58.044Z,8.30
2019-03-19T02:17:58.033Z,8.40
2019-03-19T02:18:58.026Z,8.20
2019-03-19T02:19:58.039Z,8.60
2019-03-19T02:20:58.002Z,8.20
2019-03-19T02:21:58.057Z,8.30
2019-03-19T02:22:57.984Z,7.20
2019-03-19T02:23:57.972Z,7.90
2019-03-19T02:24:57.988Z,7.70
2019-03-19T02:25:57.947Z,7.60
2019-03-19T02:26:57.941Z,7.10
2019-03-19T02:27:57.930Z,7.10
2019-03-19T02:28:57.926Z,7.10
2019-03-19T02:29:57.943Z,7.40
2019-03-19T02:30:57.899Z,6.30
2019-03-19T02:31:57.893Z,6.40
2019-03-19T02:32:57.892Z,6.60
2019-03-19T02:33:57.874Z,7.10
2019-03-19T02:34:57.910Z,7.00
2019-03-19T02:35:57.856Z,7.80
2019-03-19T02:36:57.852Z,7.70
2019-03-19T02:37:57.828Z,9.80
2019-03-19T02:38:57.816Z,8.80
2019-03-19T02:39:57.855Z,10.20
2019-03-19T02:40:57.797Z,10.70
2019-03-19T02:41:57.788Z,10.60
2019-03-19T02:42:57.778Z,12.50
2019-03-19T02:43:57.777Z,11.40
2019-03-19T02:44:57.758Z,11.70
2019-03-19T02:45:57.769Z,12.00
2019-03-19T02:46:57.732Z,12.00
2019-03-19T02:47:57.725Z,10.90
2019-03-19T02:48:57.711Z,10.70
2019-03-19T02:49:57.707Z,10.40
2019-03-19T02:50:57.719Z,9.90
2019-03-19T02:51:57.677Z,8.60
2019-03-19T02:52:57.673Z,8.10
2019-03-19T02:53:57.656Z,8.90
2019-03-19T02:54:57.651Z,8.30
2019-03-19T02:55:57.693Z,8.40
2019-03-19T02:56:57.630Z,8.10
2019-03-19T02:57:57.624Z,7.40
2019-03-19T02:58:57.612Z,9.60
2019-03-19T02:59:57.597Z,8.90
2019-03-19T03:00:57.614Z,12.20
2019-03-19T03:01:57.576Z,12.70
2019-03-19T03:02:57.566Z,13.40
2019-03-19T03:03:57.554Z,14.40
2019-03-19T03:04:57.546Z,13.80
2019-03-19T03:05:57.557Z,12.60
2019-03-19T03:06:57.525Z,12.30
2019-03-19T03:07:57.512Z,12.60
2019-03-19T03:08:57.506Z,12.40
2019-03-19T03:09:57.487Z,12.50
2019-03-19T03:10:57.503Z,11.60
2019-03-19T03:11:57.474Z,11.30
2019-03-19T03:12:57.460Z,11.70
2019-03-19T03:13:57.451Z,11.50
2019-03-19T03:14:57.444Z,11.10
2019-03-19T03:15:57.457Z,11.80
2019-03-19T03:16:57.423Z,11.60
2019-03-19T03:17:57.413Z,11.10
2019-03-19T03:18:57.399Z,11.50
2019-03-19T03:19:57.388Z,11.20
2019-03-19T03:20:57.413Z,11.00
2019-03-19T03:21:57.370Z,11.00
2019-03-19T03:22:57.367Z,11.30
2019-03-19T03:23:57.352Z,12.80
2019-03-19T03:24:57.335Z,11.90
2019-03-19T03:25:57.354Z,11.00
2019-03-19T03:26:57.319Z,11.40
2019-03-19T03:27:57.305Z,11.70
2019-03-19T03:28:57.296Z,12.00
2019-03-19T03:29:57.288Z,10.70
2019-03-19T03:30:57.297Z,11.90
2019-03-19T03:31:57.272Z,11.30
2019-03-19T03:32:57.254Z,11.60
2019-03-19T03:33:57.240Z,11.20
2019-03-19T03:34:57.239Z,12.40
2019-03-19T03:35:57.254Z,11.00
2019-03-19T03:36:57.214Z,11.20
2019-03-19T03:37:57.201Z,11.30
2019-03-19T03:38:57.186Z,12.50
2019-03-19T03:39:57.180Z,12.40
2019-03-19T03:40:57.199Z,13.00
2019-03-19T03:41:57.161Z,12.80
2019-03-19T03:42:57.149Z,11.70
2019-03-19T03:43:57.145Z,12.50
2019-03-19T03:44:57.130Z,13.10
2019-03-19T03:45:57.140Z,13.50
2019-03-19T03:46:57.109Z,13.20
2019-03-19T03:47:57.099Z,13.90
2019-03-19T03:48:57.087Z,13.20
2019-03-19T03:49:57.074Z,13.50
2019-03-19T03:50:57.175Z,12.70
2019-03-19T03:51:57.062Z,13.50
2019-03-19T03:52:57.042Z,15.10
2019-03-19T03:53:57.033Z,15.50
2019-03-19T03:54:57.031Z,15.20
2019-03-19T03:55:57.041Z,15.10
2019-03-19T03:57:02.204Z,14.00
2019-03-19T03:57:57.996Z,16.70
2019-03-19T03:59:00.884Z,15.60
2019-03-19T03:59:56.986Z,15.60
2019-03-19T04:00:57.004Z,16.00
2019-03-19T04:01:56.975Z,16.00
2019-03-19T04:02:56.940Z,15.00
2019-03-19T04:03:56.929Z,14.90
2019-03-19T04:04:56.923Z,16.10
2019-03-19T04:05:56.933Z,16.10
2019-03-19T04:06:56.906Z,14.50
2019-03-19T04:07:56.901Z,14.10
2019-03-19T04:08:56.876Z,13.70
2019-03-19T04:09:56.876Z,11.30
2019-03-19T04:10:56.886Z,13.20
2019-03-19T04:11:56.855Z,12.30
2019-03-19T04:12:56.841Z,11.50
2019-03-19T04:13:56.823Z,12.30
2019-03-19T04:14:56.816Z,12.70
2019-03-19T04:15:56.836Z,13.40
2019-03-19T04:16:56.796Z,14.60
2019-03-19T04:17:56.786Z,14.20
2019-03-19T04:18:56.787Z,14.10
2019-03-19T04:19:56.764Z,13.80
2019-03-19T04:20:56.776Z,13.90
2019-03-19T04:21:56.747Z,14.60
2019-03-19T04:22:56.735Z,15.90
2019-03-19T04:23:56.721Z,16.80
2019-03-19T04:24:56.715Z,18.40
2019-03-19T04:25:56.731Z,20.50
2019-03-19T04:26:56.694Z,21.50
2019-03-19T04:27:56.685Z,22.30
2019-03-19T04:28:56.686Z,26.20
2019-03-19T04:29:56.660Z,23.10
2019-03-19T04:30:56.680Z,22.60
2019-03-19T04:31:56.635Z,23.20
2019-03-19T04:32:56.629Z,23.90
2019-03-19T04:33:56.619Z,23.10
2019-03-19T04:34:56.616Z,23.80
2019-03-19T04:35:56.721Z,24.80
2019-03-19T04:36:56.588Z,26.30
2019-03-19T04:37:56.576Z,29.00
2019-03-19T04:38:56.580Z,31.20
2019-03-19T04:39:56.551Z,30.60
2019-03-19T04:40:56.540Z,27.00
2019-03-19T04:41:56.556Z,28.30
2019-03-19T04:42:56.521Z,25.40
2019-03-19T04:43:56.513Z,23.90
2019-03-19T04:44:56.499Z,24.60
2019-03-19T04:45:56.489Z,28.00
2019-03-19T04:46:56.502Z,29.80
2019-03-19T04:47:56.469Z,32.40
2019-03-19T04:48:56.459Z,28.90
2019-03-19T04:49:56.453Z,30.10
2019-03-19T04:50:56.437Z,29.30
2019-03-19T04:51:56.452Z,31.60
2019-03-19T04:52:56.421Z,33.40
2019-03-19T04:53:56.404Z,33.10
2019-03-19T04:54:56.403Z,33.20
2019-03-19T04:55:56.385Z,33.30
2019-03-19T04:56:56.402Z,32.30
2019-03-19T04:57:56.366Z,32.80
2019-03-19T04:58:56.355Z,33.80
2019-03-19T04:59:56.350Z,29.40
2019-03-19T05:00:56.328Z,31.60
2019-03-19T05:01:56.349Z,31.60
2019-03-19T05:02:56.312Z,30.40
2019-03-19T05:03:56.295Z,30.10
2019-03-19T05:04:56.293Z,28.20
2019-03-19T05:05:56.289Z,29.60
2019-03-19T05:06:56.296Z,30.50
2019-03-19T05:07:56.261Z,29.30
2019-03-19T05:08:56.251Z,29.20
2019-03-19T05:09:56.240Z,29.80
2019-03-19T05:10:56.224Z,30.10
2019-03-19T05:11:56.245Z,28.70
2019-03-19T05:12:56.204Z,28.20
2019-03-19T05:13:56.199Z,27.70
2019-03-19T05:15:07.086Z,26.80
2019-03-19T05:15:56.174Z,25.30
2019-03-19T05:16:56.191Z,23.90
2019-03-19T05:17:56.157Z,22.10
2019-03-19T05:18:56.145Z,21.20
2019-03-19T05:19:56.130Z,22.50
2019-03-19T05:20:56.119Z,20.50
2019-03-19T05:21:56.138Z,22.30
2019-03-19T05:22:56.107Z,23.30
2019-03-19T05:23:56.089Z,25.10
2019-03-19T05:24:56.082Z,24.70
2019-03-19T05:25:56.066Z,24.80
2019-03-19T05:26:56.084Z,26.40
2019-03-19T05:27:56.049Z,29.70
2019-03-19T05:28:56.047Z,29.10
2019-03-19T05:29:56.031Z,30.00
2019-03-19T05:30:56.019Z,28.70
2019-03-19T05:31:56.032Z,25.80
2019-03-19T05:32:55.992Z,25.80
2019-03-19T05:33:55.986Z,24.50
2019-03-19T05:34:55.974Z,23.30
2019-03-19T05:35:55.962Z,25.60
2019-03-19T05:36:55.980Z,23.70
2019-03-19T05:37:55.947Z,25.70
2019-03-19T05:38:55.930Z,24.20
2019-03-19T05:39:55.922Z,25.40
2019-03-19T05:40:55.908Z,26.10
2019-03-19T05:41:55.928Z,25.00
2019-03-19T05:42:55.895Z,24.80
2019-03-19T05:43:55.879Z,27.60
2019-03-19T05:44:55.867Z,28.30
2019-03-19T05:45:55.860Z,31.20
2019-03-19T05:46:55.875Z,30.40
2019-03-19T05:47:55.833Z,31.30
2019-03-19T05:48:55.830Z,37.70
2019-03-19T05:49:55.816Z,39.00
2019-03-19T05:50:55.807Z,39.20
2019-03-19T05:51:55.819Z,37.80
2019-03-19T05:52:55.779Z,36.30
2019-03-19T05:53:55.773Z,43.20
2019-03-19T05:54:55.765Z,46.70
2019-03-19T05:55:55.755Z,45.20
2019-03-19T05:56:55.767Z,42.30
2019-03-19T05:57:55.733Z,44.60
2019-03-19T05:58:55.719Z,41.90
2019-03-19T05:59:55.711Z,38.60
2019-03-19T06:00:55.697Z,33.70
2019-03-19T06:01:55.720Z,35.30
2019-03-19T06:02:55.683Z,37.00
2019-03-19T06:03:55.675Z,40.00
2019-03-19T06:04:55.655Z,42.00
2019-03-19T06:05:55.646Z,44.30
2019-03-19T06:06:55.664Z,45.40
2019-03-19T06:07:55.627Z,47.40
2019-03-19T06:08:55.618Z,53.40
2019-03-19T06:09:55.607Z,54.50
2019-03-19T06:10:55.595Z,52.80
2019-03-19T06:11:55.613Z,55.70
2019-03-19T06:12:55.572Z,51.00
2019-03-19T06:13:55.567Z,50.70
2019-03-19T06:14:55.560Z,52.10
2019-03-19T06:15:55.549Z,52.80
2019-03-19T06:16:55.567Z,50.90
2019-03-19T06:17:55.528Z,45.90
2019-03-19T06:18:55.514Z,45.80
2019-03-19T06:19:55.502Z,47.90
2019-03-19T06:20:55.498Z,48.40
2019-03-19T06:21:56.768Z,47.80
2019-03-19T06:22:55.471Z,51.50
2019-03-19T06:23:55.463Z,51.30
2019-03-19T06:24:55.452Z,49.10
2019-03-19T06:25:55.453Z,54.90
2019-03-19T06:26:55.458Z,56.90
2019-03-19T06:28:00.329Z,56.70
2019-03-19T06:28:56.411Z,57.80
2019-03-19T06:29:55.400Z,57.70
2019-03-19T06:30:55.393Z,61.20
2019-03-19T06:31:55.420Z,58.00
2019-03-19T06:32:55.382Z,58.60
2019-03-19T06:33:55.357Z,56.70
2019-03-19T06:34:55.347Z,58.20
2019-03-19T06:35:55.338Z,55.90
2019-03-19T06:36:55.362Z,54.90
2019-03-19T06:37:55.319Z,52.80
2019-03-19T06:38:55.306Z,53.20
2019-03-19T06:39:55.295Z,48.20
2019-03-19T06:40:55.283Z,50.60
2019-03-19T06:41:55.275Z,49.70
2019-03-19T06:42:55.296Z,45.90
2019-03-19T06:43:55.251Z,43.20
2019-03-19T06:44:55.242Z,48.00
2019-03-19T06:45:55.230Z,48.10
2019-03-19T06:46:55.218Z,46.40
2019-03-19T06:47:55.239Z,46.90
2019-03-19T06:48:55.204Z,45.90
2019-03-19T06:49:55.190Z,49.40
2019-03-19T06:50:55.183Z,51.10
2019-03-19T06:51:55.175Z,46.70
2019-03-19T06:52:55.183Z,47.60
2019-03-19T06:53:55.153Z,47.70
2019-03-19T06:54:55.140Z,46.40
2019-03-19T06:55:55.129Z,45.90
2019-03-19T06:56:55.118Z,47.70
2019-03-19T06:57:55.143Z,42.70
2019-03-19T06:58:55.105Z,44.80
2019-03-19T06:59:55.083Z,48.20
2019-03-19T07:00:55.072Z,47.40
2019-03-19T07:01:55.074Z,44.50
2019-03-19T07:02:55.088Z,47.20
2019-03-19T07:03:55.045Z,43.30
2019-03-19T07:04:55.031Z,44.20
2019-03-19T07:05:55.023Z,40.50
2019-03-19T07:06:55.059Z,40.40
2019-03-19T07:07:55.024Z,45.70
2019-03-19T07:08:54.992Z,41.40
2019-03-19T07:09:54.980Z,43.60
2019-03-19T07:10:55.008Z,37.30
2019-03-19T07:11:54.960Z,41.80
2019-03-19T07:12:54.973Z,44.00
2019-03-19T07:13:54.938Z,39.80
2019-03-19T07:14:54.927Z,37.50
2019-03-19T07:15:54.920Z,38.80
2019-03-19T07:16:54.906Z,42.20
2019-03-19T07:17:54.923Z,33.10
2019-03-19T07:18:54.892Z,35.50
2019-03-19T07:19:54.886Z,33.20
2019-03-19T07:20:54.862Z,39.90
2019-03-19T07:21:54.854Z,36.70
2019-03-19T07:22:54.871Z,32.40
2019-03-19T07:23:54.831Z,32.90
2019-03-19T07:24:54.825Z,34.90
2019-03-19T07:25:54.811Z,33.30
2019-03-19T07:26:54.799Z,35.30
2019-03-19T07:27:54.823Z,33.80
2019-03-19T07:28:54.785Z,32.00
2019-03-19T07:29:54.774Z,31.70
2019-03-19T07:30:54.761Z,34.40
2019-03-19T07:31:54.748Z,35.80
2019-03-19T07:32:54.773Z,32.60
2019-03-19T07:33:54.733Z,34.90
2019-03-19T07:34:54.724Z,33.50
2019-03-19T07:35:54.707Z,33.60
2019-03-19T07:36:54.709Z,31.10
2019-03-19T07:37:54.727Z,28.80
2019-03-19T07:38:54.675Z,30.70
2019-03-19T07:39:54.663Z,32.80
2019-03-19T07:40:54.657Z,32.80
2019-03-19T07:41:54.642Z,29.00
2019-03-19T07:42:54.668Z,27.00
2019-03-19T07:43:54.621Z,32.40
2019-03-19T07:44:54.612Z,36.00
2019-03-19T07:45:54.600Z,31.00
2019-03-19T07:46:54.592Z,26.10
2019-03-19T07:47:54.612Z,33.00
2019-03-19T07:48:54.569Z,32.50
2019-03-19T07:49:54.558Z,29.00
2019-03-19T07:50:54.551Z,28.60
2019-03-19T07:51:54.539Z,30.80
2019-03-19T07:52:54.559Z,25.70
2019-03-19T07:53:54.515Z,27.10
2019-03-19T07:54:54.507Z,23.80
2019-03-19T07:55:54.490Z,24.70
2019-03-19T07:56:54.490Z,26.10
2019-03-19T07:57:54.507Z,25.60
2019-03-19T07:58:54.464Z,26.70
2019-03-19T07:59:54.457Z,24.70
2019-03-19T08:00:54.440Z,24.10
2019-03-19T08:01:54.432Z,23.30
2019-03-19T08:02:54.471Z,25.10
2019-03-19T08:03:54.413Z,22.30
2019-03-19T08:04:54.399Z,24.80
2019-03-19T08:05:54.394Z,22.60
2019-03-19T08:06:54.378Z,23.40
2019-03-19T08:07:54.368Z,25.30
2019-03-19T08:08:54.381Z,21.70
2019-03-19T08:09:54.349Z,21.90
2019-03-19T08:10:54.336Z,20.70
2019-03-19T08:11:54.333Z,20.60
2019-03-19T08:12:54.312Z,19.70
2019-03-19T08:13:54.347Z,20.10
2019-03-19T08:14:54.291Z,21.20
2019-03-19T08:15:54.283Z,23.10
2019-03-19T08:16:54.275Z,21.80
2019-03-19T08:17:54.264Z,17.50
2019-03-19T08:18:54.284Z,16.40
2019-03-19T08:19:54.245Z,22.50
2019-03-19T08:20:54.227Z,18.90
2019-03-19T08:21:54.218Z,22.00
2019-03-19T08:22:54.209Z,17.40
2019-03-19T08:23:54.223Z,17.10
2019-03-19T08:24:54.187Z,16.60
2019-03-19T08:25:54.178Z,15.90
2019-03-19T08:26:54.181Z,14.30
2019-03-19T08:27:54.155Z,16.80
2019-03-19T08:28:55.508Z,15.90
2019-03-19T08:29:54.135Z,15.40
2019-03-19T08:30:54.119Z,15.10
2019-03-19T08:31:54.113Z,14.90
2019-03-19T08:32:54.102Z,16.10
2019-03-19T08:33:54.120Z,13.40
2019-03-19T08:34:54.092Z,13.60
2019-03-19T08:35:54.109Z,15.50
2019-03-19T08:36:54.059Z,13.70
2019-03-19T08:37:54.052Z,14.50
2019-03-19T08:38:54.069Z,13.20
2019-03-19T08:39:54.034Z,13.90
2019-03-19T08:40:54.023Z,10.40
2019-03-19T08:41:54.004Z,11.50
2019-03-19T08:42:53.991Z,11.50
2019-03-19T08:43:54.006Z,12.10
2019-03-19T08:44:53.970Z,12.50
2019-03-19T08:45:53.964Z,12.00
2019-03-19T08:46:53.951Z,10.60
2019-03-19T08:47:53.944Z,11.70
2019-03-19T08:48:53.958Z,12.60
2019-03-19T08:49:53.918Z,11.30
2019-03-19T08:50:53.914Z,11.30
2019-03-19T08:51:53.902Z,10.10
2019-03-19T08:52:55.364Z,11.00
2019-03-19T08:53:53.914Z,11.20
2019-03-19T08:54:53.877Z,10.70
2019-03-19T08:55:53.860Z,11.20
2019-03-19T08:56:53.845Z,9.10
2019-03-19T08:57:53.846Z,9.60
2019-03-19T08:58:53.849Z,9.70
2019-03-19T08:59:53.811Z,9.90
2019-03-19T09:00:53.803Z,9.60
2019-03-19T09:01:53.793Z,9.60
2019-03-19T09:02:53.786Z,8.80
2019-03-19T09:03:53.795Z,8.40
2019-03-19T09:04:53.765Z,8.80
2019-03-19T09:05:53.756Z,8.50
2019-03-19T09:06:53.735Z,8.60
2019-03-19T09:07:53.731Z,8.10
2019-03-19T09:08:53.743Z,8.00
2019-03-19T09:09:53.718Z,7.30
2019-03-19T09:10:53.695Z,8.10
2019-03-19T09:11:53.687Z,7.00
2019-03-19T09:12:53.676Z,6.70
2019-03-19T09:13:53.693Z,6.10
2019-03-19T09:14:53.655Z,6.10
2019-03-19T09:15:53.644Z,6.70
2019-03-19T09:16:53.642Z,5.70
2019-03-19T09:17:53.629Z,6.10
2019-03-19T09:18:53.643Z,6.20
2019-03-19T09:19:53.601Z,6.80
2019-03-19T09:20:54.149Z,6.70
2019-03-19T09:21:53.583Z,6.60
2019-03-19T09:22:53.572Z,6.20
2019-03-19T09:23:53.582Z,6.60
2019-03-19T09:24:53.552Z,6.40
2019-03-19T09:25:53.538Z,6.80
2019-03-19T09:26:53.531Z,6.50
2019-03-19T09:27:53.515Z,6.70
2019-03-19T09:28:53.549Z,6.00
2019-03-19T09:29:53.496Z,6.40
2019-03-19T09:30:53.487Z,6.70
2019-03-19T09:31:53.478Z,7.40
2019-03-19T09:32:53.456Z,6.80
2019-03-19T09:33:53.486Z,6.10
2019-03-19T09:34:53.444Z,7.40
2019-03-19T09:35:53.433Z,7.20
2019-03-19T09:36:57.233Z,6.60
2019-03-19T09:37:58.353Z,7.20
2019-03-19T09:38:54.429Z,6.70
2019-03-19T09:39:53.396Z,6.90
2019-03-19T09:40:53.375Z,7.30
2019-03-19T09:41:53.367Z,6.90
2019-03-19T09:42:53.412Z,7.20
2019-03-19T09:43:53.695Z,7.30
2019-03-19T09:44:58.539Z,6.30
2019-03-19T09:45:54.331Z,5.60
2019-03-19T09:46:53.315Z,5.90
2019-03-19T09:47:53.307Z,5.40
2019-03-19T09:48:53.331Z,4.80
2019-03-19T09:49:53.289Z,4.90
2019-03-19T09:50:53.271Z,6.10
2019-03-19T09:51:53.263Z,5.30
2019-03-19T09:52:53.264Z,5.10
2019-03-19T09:53:53.244Z,5.40
2019-03-19T09:54:53.263Z,4.20
2019-03-19T09:55:53.224Z,4.50
2019-03-19T09:56:53.212Z,4.70
2019-03-19T09:57:53.196Z,4.40
2019-03-19T09:58:53.194Z,4.90
2019-03-19T09:59:53.206Z,4.80
2019-03-19T10:00:53.179Z,5.20
2019-03-19T10:01:53.166Z,5.50
2019-03-19T10:02:53.240Z,5.50
2019-03-19T10:03:53.137Z,5.00
2019-03-19T10:04:53.187Z,4.90
2019-03-19T10:05:53.197Z,5.00
2019-03-19T10:06:53.211Z,4.60
2019-03-19T10:07:55.466Z,4.70
2019-03-19T10:08:53.079Z,4.80
2019-03-19T10:09:53.096Z,4.20
2019-03-19T10:10:53.059Z,4.20
2019-03-19T10:11:53.051Z,4.30
2019-03-19T10:12:53.043Z,4.60
2019-03-19T10:13:53.034Z,4.20
2019-03-19T10:14:53.052Z,4.50
2019-03-19T10:15:53.013Z,4.50
2019-03-19T10:16:52.994Z,3.90
2019-03-19T10:17:52.984Z,4.20
2019-03-19T10:18:52.981Z,4.20
2019-03-19T10:19:52.991Z,4.20
2019-03-19T10:20:52.951Z,3.80
2019-03-19T10:21:52.943Z,3.40
2019-03-19T10:22:52.936Z,4.10
2019-03-19T10:23:52.927Z,3.60
2019-03-19T10:24:52.935Z,3.60
2019-03-19T10:25:52.909Z,3.60
2019-03-19T10:26:52.890Z,3.40
2019-03-19T10:27:52.875Z,3.90
2019-03-19T10:28:52.868Z,4.00
2019-03-19T10:29:52.886Z,4.40
2019-03-19T10:30:52.852Z,3.90
2019-03-19T10:31:52.840Z,3.10
2019-03-19T10:32:52.824Z,2.90
2019-03-19T10:33:52.811Z,3.20
2019-03-19T10:34:52.818Z,3.00
2019-03-19T10:35:52.797Z,2.40
2019-03-19T10:36:52.785Z,2.40
2019-03-19T10:37:52.778Z,2.50
2019-03-19T10:38:52.764Z,2.20
2019-03-19T10:39:52.782Z,2.40
2019-03-19T10:40:52.739Z,3.00
2019-03-19T10:41:52.735Z,2.60
2019-03-19T10:42:52.723Z,2.80
2019-03-19T10:43:52.708Z,2.10
2019-03-19T10:44:52.725Z,2.50
2019-03-19T10:45:52.688Z,2.50
2019-03-19T10:46:52.681Z,2.40
2019-03-19T10:47:52.668Z,2.80
2019-03-19T10:48:52.657Z,2.80
2019-03-19T10:49:52.688Z,2.60
2019-03-19T10:50:52.623Z,2.20
2019-03-19T10:51:52.623Z,2.30
2019-03-19T10:52:52.615Z,2.40
2019-03-19T10:53:52.594Z,2.50
2019-03-19T10:54:52.620Z,2.10
2019-03-19T10:55:52.581Z,1.90
2019-03-19T10:56:52.574Z,2.10
2019-03-19T10:57:52.565Z,2.20
2019-03-19T10:58:52.597Z,2.00
2019-03-19T10:59:52.847Z,2.60
2019-03-19T11:00:52.525Z,2.80
2019-03-19T11:01:52.518Z,3.00
2019-03-19T11:02:52.508Z,3.20
2019-03-19T11:03:52.491Z,2.70
2019-03-19T11:04:52.491Z,3.30
2019-03-19T11:05:52.504Z,2.80
2019-03-19T11:06:52.468Z,3.10
2019-03-19T11:07:52.460Z,3.00
2019-03-19T11:08:52.445Z,3.00
2019-03-19T11:09:52.432Z,3.00
2019-03-19T11:10:52.446Z,2.90
2019-03-19T11:11:52.409Z,2.70
2019-03-19T11:12:52.399Z,3.00
2019-03-19T11:13:52.391Z,2.50
2019-03-19T11:14:59.617Z,2.40
2019-03-19T11:15:52.372Z,2.50
2019-03-19T11:16:52.362Z,2.50
2019-03-19T11:17:52.411Z,2.50
2019-03-19T11:18:52.335Z,2.70
2019-03-19T11:19:52.327Z,3.20
2019-03-19T11:20:52.346Z,2.40
2019-03-19T11:21:52.305Z,2.90
2019-03-19T11:22:52.294Z,2.90
2019-03-19T11:23:52.291Z,2.70
2019-03-19T11:24:52.276Z,2.80
2019-03-19T11:25:54.721Z,2.50
2019-03-19T11:26:52.256Z,2.70
2019-03-19T11:27:52.243Z,2.60
2019-03-19T11:28:52.236Z,3.00
2019-03-19T11:29:59.841Z,3.50
2019-03-19T11:30:53.235Z,3.20
2019-03-19T11:31:52.197Z,2.80
2019-03-19T11:32:52.192Z,2.90
2019-03-19T11:33:52.184Z,3.10
2019-03-19T11:34:52.173Z,2.80
2019-03-19T11:35:52.178Z,3.60
2019-03-19T11:36:57.749Z,3.00
2019-03-19T11:37:53.133Z,3.00
2019-03-19T11:38:52.128Z,3.20
2019-03-19T11:39:52.111Z,3.20
2019-03-19T11:40:52.132Z,3.10
2019-03-19T11:41:52.094Z,2.80
2019-03-19T11:42:52.088Z,2.50
2019-03-19T11:43:52.067Z,2.50
2019-03-19T11:44:52.060Z,2.80
2019-03-19T11:45:52.066Z,3.30
2019-03-19T11:46:53.585Z,3.10
2019-03-19T11:47:52.032Z,3.00
2019-03-19T11:48:52.019Z,3.10
2019-03-19T11:49:52.007Z,3.20
2019-03-19T11:50:52.031Z,3.00
2019-03-19T11:51:51.987Z,2.70
2019-03-19T11:52:51.980Z,2.60
2019-03-19T11:53:51.968Z,2.90
2019-03-19T11:54:51.955Z,3.20
2019-03-19T11:55:51.960Z,3.40
2019-03-19T11:56:51.932Z,3.10
2019-03-19T11:57:51.932Z,3.30
2019-03-19T11:58:51.896Z,3.30
2019-03-19T11:59:51.914Z,3.00
2019-03-19T12:00:51.916Z,3.80
2019-03-19T12:01:51.880Z,3.10
2019-03-19T12:02:51.870Z,3.20
2019-03-19T12:03:51.864Z,3.10
2019-03-19T12:04:51.842Z,3.00
2019-03-19T12:05:51.863Z,3.10
2019-03-19T12:06:51.825Z,3.10
2019-03-19T12:07:51.824Z,3.30
2019-03-19T12:08:51.803Z,3.20
2019-03-19T12:09:51.797Z,3.10
2019-03-19T12:10:51.811Z,3.00
2019-03-19T12:11:51.773Z,3.20
2019-03-19T12:12:51.762Z,2.80
2019-03-19T12:13:51.751Z,2.50
2019-03-19T12:14:51.743Z,2.80
2019-03-19T12:15:51.762Z,2.80
2019-03-19T12:16:51.720Z,2.50
2019-03-19T12:17:51.707Z,2.80
2019-03-19T12:18:51.697Z,2.60
2019-03-19T12:19:51.684Z,2.70
2019-03-19T12:20:51.779Z,2.80
2019-03-19T12:21:51.665Z,2.90
2019-03-19T12:22:51.652Z,3.00
2019-03-19T12:23:51.648Z,3.30
2019-03-19T12:24:51.633Z,3.10
2019-03-19T12:25:51.626Z,3.40
2019-03-19T12:26:51.643Z,2.80
2019-03-19T12:27:51.605Z,3.00
2019-03-19T12:28:51.592Z,3.00
2019-03-19T12:29:51.584Z,2.80
2019-03-19T12:30:51.568Z,2.70
2019-03-19T12:31:51.583Z,2.40
2019-03-19T12:32:51.549Z,2.40
2019-03-19T12:33:51.536Z,2.60
2019-03-19T12:34:51.532Z,2.30
2019-03-19T12:35:51.527Z,2.00
2019-03-19T12:36:51.536Z,2.60
2019-03-19T12:37:51.501Z,2.90
2019-03-19T12:38:51.483Z,2.60
2019-03-19T12:39:51.479Z,2.70
2019-03-19T12:40:51.463Z,3.00
2019-03-19T12:41:51.464Z,2.30
2019-03-19T12:42:51.440Z,2.70
2019-03-19T12:43:51.433Z,2.40
2019-03-19T12:44:51.414Z,2.60
2019-03-19T12:45:51.410Z,2.60
2019-03-19T12:46:51.426Z,2.50
2019-03-19T12:47:51.402Z,2.60
2019-03-19T12:48:51.383Z,2.70
2019-03-19T12:49:51.377Z,2.60
2019-03-19T12:50:51.360Z,2.70
2019-03-19T12:51:51.373Z,2.80
2019-03-19T12:52:51.337Z,2.30
2019-03-19T12:53:51.325Z,2.30
2019-03-19T12:54:51.316Z,2.40
2019-03-19T12:55:51.305Z,2.30
2019-03-19T12:56:51.309Z,2.10
2019-03-19T12:57:51.286Z,2.00
2019-03-19T12:58:51.277Z,2.10
2019-03-19T12:59:51.264Z,2.40
2019-03-19T13:00:51.251Z,2.30
2019-03-19T13:01:51.266Z,2.40
2019-03-19T13:02:51.233Z,2.70
2019-03-19T13:03:51.224Z,2.50
2019-03-19T13:04:51.209Z,2.60
2019-03-19T13:05:51.200Z,2.60
2019-03-19T13:06:51.213Z,2.60